Time;durP1;ratioP1;P1;durP2;ratioP2;P2;SDS_P1;SDS_P2;PMS_P1;PMS_P2;Temp;Humidity;BMP_temperature;BMP_pressure;BME280_temperature;BME280_humidity;BME280_pressure;Samples;Min_cycle;Max_cycle;Signal;HPM_P1;HPM_P2
2022/03/25 00:02:07;;;;;;;10.18;8.00;;;;;;;12.15;26.73;99594.22;6337208;22;20015;-89
2022/03/25 00:04:33;;;;;;;12.40;8.48;;;;;;;12.67;26.15;99668.13;6309898;22;20428;-89
2022/03/25 00:06:58;;;;;;;13.27;8.70;;;;;;;12.45;26.25;99608.19;6309210;22;20454;-89
2022/03/25 00:09:24;;;;;;;12.48;8.52;;;;;;;12.27;26.18;99574.19;6337101;22;20007;-89
2022/03/25 00:11:49;;;;;;;12.98;8.95;;;;;;;12.92;26.22;99648.19;6309593;22;20411;-89
2022/03/25 00:14:15;;;;;;;13.13;8.77;;;;;;;12.98;25.94;99654.56;6309639;22;20092;-89
2022/03/25 00:16:42;;;;;;;12.38;8.48;;;;;;;13.13;25.83;99652.63;6309645;22;19995;-88
2022/03/25 00:19:08;;;;;;;13.98;8.77;;;;;;;12.19;25.80;99494.91;6337611;22;20006;-89
2022/03/25 00:21:34;;;;;;;10.35;7.55;;;;;;;13.01;25.52;99632.97;6337320;22;19999;-90
2022/03/25 00:24:00;;;;;;;11.95;8.52;;;;;;;13.19;25.43;99641.31;6309728;22;19999;-89
2022/03/25 00:26:25;;;;;;;10.80;8.18;;;;;;;11.56;25.58;99361.56;6337744;22;20072;-89
2022/03/25 00:28:50;;;;;;;13.90;8.73;;;;;;;12.86;25.12;99564.16;6337243;22;20440;-89
2022/03/25 00:31:16;;;;;;;10.57;7.28;;;;;;;12.59;24.92;99539.25;6337023;22;20466;-89
2022/03/25 00:33:43;;;;;;;12.50;8.05;;;;;;;12.85;25.00;99551.09;6337215;22;20006;-89
2022/03/25 00:36:10;;;;;;;13.23;8.50;;;;;;;13.49;24.75;99631.34;6309678;22;20055;-89
2022/03/25 00:38:36;;;;;;;11.48;8.27;;;;;;;13.44;24.82;99624.97;6309523;22;20600;-89
2022/03/25 00:41:01;;;;;;;11.88;8.07;;;;;;;12.81;25.04;99526.81;6337186;22;19994;-89
2022/03/25 00:43:28;;;;;;;15.02;8.65;;;;;;;12.78;24.54;99511.31;6337256;22;20051;-89
2022/03/25 00:45:53;;;;;;;13.75;7.80;;;;;;;12.97;24.64;99542.41;6309320;22;20077;-89
2022/03/25 00:48:19;;;;;;;12.35;8.68;;;;;;;12.86;25.00;99518.28;6309341;22;20034;-89
2022/03/25 00:50:44;;;;;;;9.57;8.35;;;;;;;13.29;24.58;99570.19;6309000;22;20086;-89
2022/03/25 00:53:10;;;;;;;14.10;7.80;;;;;;;13.59;24.81;99618.53;6336955;22;20002;-89
2022/03/25 00:55:37;;;;;;;16.05;9.20;;;;;;;13.61;24.92;99627.13;6336919;22;20003;-89
2022/03/25 00:58:03;;;;;;;12.15;8.15;;;;;;;12.64;24.55;99462.72;6336922;22;20406;-89
2022/03/25 01:00:29;;;;;;;10.27;8.18;;;;;;;13.66;24.37;99611.44;6336935;22;20019;-88
2022/03/25 01:02:54;;;;;;;11.27;7.78;;;;;;;12.86;24.65;99483.84;6336766;22;20049;-89
2022/03/25 01:05:20;;;;;;;10.15;7.53;;;;;;;13.16;24.56;99535.63;6309030;22;20007;-89
2022/03/25 01:07:45;;;;;;;12.68;8.38;;;;;;;13.56;24.30;99599.53;6308919;22;20052;-88
2022/03/25 01:10:12;;;;;;;13.48;8.48;;;;;;;13.50;24.45;99574.63;6346784;22;19999;-89
2022/03/25 01:12:37;;;;;;;12.45;8.32;;;;;;;13.38;24.73;99552.31;6332364;22;20407;-89
2022/03/25 01:15:04;;;;;;;11.00;8.48;;;;;;;13.72;24.42;99598.41;6328638;22;19999;-89
2022/03/25 01:17:29;;;;;;;12.75;8.68;;;;;;;12.93;24.23;99485.53;6337727;22;20002;-89
2022/03/25 01:19:55;;;;;;;11.82;7.82;;;;;;;13.21;24.91;99532.41;6309469;22;19998;-89
2022/03/25 01:22:21;;;;;;;11.88;7.90;;;;;;;13.73;24.23;99613.31;6309646;22;20048;-89
2022/03/25 01:24:47;;;;;;;14.93;8.75;;;;;;;13.44;24.23;99571.94;6336859;22;19990;-89
2022/03/25 01:27:12;;;;;;;11.77;7.95;;;;;;;13.37;24.31;99566.56;6336904;22;20344;-89
2022/03/25 01:29:38;;;;;;;11.73;8.75;;;;;;;13.56;24.52;99600.38;6336769;22;20078;-89
2022/03/25 01:32:06;;;;;;;13.70;8.60;;;;;;;13.23;24.75;99547.09;6336724;22;20006;-89
2022/03/25 01:34:33;;;;;;;13.05;7.60;;;;;;;13.00;24.62;99504.13;6336785;22;20364;-89
2022/03/25 01:36:58;;;;;;;11.85;8.02;;;;;;;13.45;24.44;99577.03;6336524;22;20433;-89
2022/03/25 01:39:24;;;;;;;12.90;8.57;;;;;;;12.37;24.50;99415.84;6308939;22;20137;-89
2022/03/25 01:41:50;;;;;;;12.90;7.88;;;;;;;13.44;24.69;99599.28;6336891;22;19999;-89
2022/03/25 01:44:25;;;;;;;11.00;7.97;;;;;;;13.05;24.59;99530.84;6326485;22;19994;-88
2022/03/25 01:46:52;;;;;;;10.77;7.82;;;;;;;13.22;24.58;99550.78;6331569;22;20003;-88
2022/03/25 01:49:18;;;;;;;10.52;8.00;;;;;;;13.69;24.60;99650.03;6313605;22;19995;-89
2022/03/25 01:51:44;;;;;;;11.48;8.68;;;;;;;12.91;24.52;99537.06;6336915;22;20080;-89
2022/03/25 01:54:30;;;;;;;14.00;8.27;;;;;;;13.57;24.85;99643.63;6336953;22;20003;-89
2022/03/25 01:57:02;;;;;;;14.05;7.60;;;;;;;13.13;24.43;99577.59;6309004;22;19998;-89
2022/03/25 01:59:28;;;;;;;10.85;7.63;;;;;;;12.92;24.78;99563.38;6309057;22;20052;-89
2022/03/25 02:01:54;;;;;;;15.65;8.90;;;;;;;13.64;24.93;99666.53;6336657;22;20014;-89
2022/03/25 02:04:21;;;;;;;12.32;8.02;;;;;;;13.47;24.75;99627.25;6309085;22;19995;-89
2022/03/25 02:06:46;;;;;;;14.13;8.23;;;;;;;12.95;24.91;99576.25;6336541;22;19995;-89
2022/03/25 02:09:12;;;;;;;10.52;7.82;;;;;;;13.28;25.04;99624.22;6336683;22;20048;-89
2022/03/25 02:11:38;;;;;;;12.00;8.05;;;;;;;12.22;24.69;99457.47;6309392;22;20007;-88
2022/03/25 02:14:04;;;;;;;13.13;8.13;;;;;;;13.35;24.98;99667.53;6336226;22;20439;-88
2022/03/25 02:16:43;;;;;;;10.38;7.50;;;;;;;13.19;25.27;99629.88;6336157;22;20450;-89
2022/03/25 02:19:12;;;;;;;11.75;7.80;;;;;;;13.01;25.08;99611.75;6308643;22;20432;-88
2022/03/25 02:21:38;;;;;;;10.48;7.65;;;;;;;13.50;25.10;99735.59;6336289;22;19998;-89
2022/03/25 02:24:06;;;;;;;10.75;8.10;;;;;;;13.26;25.46;99699.69;6308830;22;19991;-89
2022/03/25 02:26:32;;;;;;;13.27;8.10;;;;;;;13.32;25.75;99741.34;6336638;22;19995;-89
2022/03/25 02:28:59;;;;;;;12.30;9.55;;;;;;;13.00;26.25;99737.34;6336477;22;20002;-89
2022/03/25 02:31:24;;;;;;;15.02;10.70;;;;;;;12.74;26.70;99751.13;6309919;22;20077;-89
2022/03/25 02:33:56;;;;;;;14.68;10.57;;;;;;;12.51;27.03;99761.03;6310440;22;20030;-89
2022/03/25 02:36:22;;;;;;;13.65;10.50;;;;;;;11.88;28.20;99733.28;6338193;22;20048;-89
2022/03/25 02:38:47;;;;;;;17.85;11.07;;;;;;;11.65;28.33;99702.41;6338163;22;19987;-90
2022/03/25 02:41:13;;;;;;;19.02;10.80;;;;;;;11.24;28.04;99643.00;6337900;22;20017;-90
2022/03/25 02:43:38;;;;;;;14.75;10.52;;;;;;;11.50;28.04;99735.13;6310601;22;20320;-90
2022/03/25 02:46:05;;;;;;;12.88;9.73;;;;;;;11.72;28.54;99744.81;6310655;22;20064;-90
2022/03/25 02:48:31;;;;;;;14.77;10.15;;;;;;;10.60;28.41;99589.69;6310784;22;19995;-89
2022/03/25 02:50:56;;;;;;;13.68;9.02;;;;;;;11.33;28.33;99679.75;6338393;22;20053;-90
2022/03/25 02:53:21;;;;;;;15.18;9.82;;;;;;;11.89;28.40;99770.16;6338392;22;19995;-90
2022/03/25 02:55:47;;;;;;;17.40;10.25;;;;;;;11.84;27.96;99758.47;6310579;22;20010;-90
2022/03/25 02:58:13;;;;;;;14.25;9.77;;;;;;;11.61;28.29;99740.78;6310397;22;20055;-90
2022/03/25 03:00:38;;;;;;;19.15;10.73;;;;;;;10.66;28.54;99581.91;6310432;22;20458;-89
2022/03/25 03:03:04;;;;;;;16.73;10.98;;;;;;;11.67;28.34;99768.34;6310600;22;20002;-90
2022/03/25 03:05:31;;;;;;;14.40;10.15;;;;;;;11.16;28.63;99693.28;6310494;22;20002;-90
2022/03/25 03:07:58;;;;;;;14.68;11.27;;;;;;;11.71;28.62;99798.72;6310191;22;20439;-90
2022/03/25 03:10:24;;;;;;;15.95;10.80;;;;;;;11.52;28.74;99760.38;6337889;22;20452;-89
2022/03/25 03:12:52;;;;;;;16.60;11.55;;;;;;;10.28;28.56;99551.97;6310399;22;20006;-89
2022/03/25 03:15:18;;;;;;;14.82;11.10;;;;;;;11.77;28.32;99814.72;6338001;22;20007;-90
2022/03/25 03:17:48;;;;;;;16.52;10.98;;;;;;;11.08;28.92;99688.84;6337885;22;20457;-90
2022/03/25 03:20:16;;;;;;;20.85;12.02;;;;;;;11.38;28.85;99750.59;6310154;22;20013;-90
2022/03/25 03:22:43;;;;;;;15.00;11.00;;;;;;;10.95;28.79;99676.25;6310259;22;19999;-90
2022/03/25 03:25:10;;;;;;;19.15;11.55;;;;;;;11.83;28.55;99818.47;6338074;22;19994;-90
2022/03/25 03:27:36;;;;;;;15.95;10.77;;;;;;;11.38;28.81;99747.94;6337825;22;19999;-90
2022/03/25 03:30:04;;;;;;;15.60;11.23;;;;;;;11.54;28.64;99778.72;6337995;22;19999;-90
2022/03/25 03:32:29;;;;;;;17.70;12.35;;;;;;;11.50;27.72;99778.25;6337945;22;20486;-90
2022/03/25 03:34:56;;;;;;;22.05;13.10;;;;;;;11.88;28.40;99826.69;6310281;22;19999;-90
2022/03/25 03:37:22;;;;;;;19.65;13.25;;;;;;;11.89;28.30;99833.66;6337775;22;19999;-90
2022/03/25 03:39:48;;;;;;;19.85;12.80;;;;;;;11.81;28.53;99820.47;6310097;22;19999;-89
2022/03/25 03:42:14;;;;;;;18.13;12.82;;;;;;;11.16;27.87;99715.25;6309868;22;20006;-89
2022/03/25 03:44:40;;;;;;;17.85;13.07;;;;;;;11.89;28.05;99833.66;6337603;22;19995;-89
2022/03/25 03:47:07;;;;;;;19.40;12.63;;;;;;;10.46;28.16;99612.41;6309973;22;20007;-90
2022/03/25 03:49:36;;;;;;;21.90;13.45;;;;;;;11.65;28.06;99794.16;6337798;22;20356;-90
2022/03/25 03:52:03;;;;;;;20.17;13.25;;;;;;;11.51;28.16;99797.56;6337526;22;19998;-90
2022/03/25 03:54:28;;;;;;;17.95;12.65;;;;;;;10.14;28.25;99592.25;6309894;22;20064;-90
2022/03/25 03:56:54;;;;;;;17.92;13.15;;;;;;;10.98;28.41;99760.44;6309968;22;20003;-90
2022/03/25 03:59:19;;;;;;;18.40;12.25;;;;;;;9.83;28.53;99561.44;6309954;22;20034;-89
2022/03/25 04:01:45;;;;;;;22.77;13.75;;;;;;;10.88;28.57;99707.00;6304452;22;20015;-90
2022/03/25 04:04:11;;;;;;;17.25;13.43;;;;;;;11.58;28.85;99825.78;6304604;22;19992;-90
2022/03/25 04:06:36;;;;;;;23.48;13.38;;;;;;;11.59;28.74;99845.94;6304385;22;19999;-89
2022/03/25 04:09:02;;;;;;;21.02;14.23;;;;;;;10.60;28.92;99667.09;6304322;22;20455;-90
2022/03/25 04:11:27;;;;;;;23.98;14.38;;;;;;;11.23;29.01;99770.88;6304944;22;19991;-89
2022/03/25 04:13:53;;;;;;;23.42;14.55;;;;;;;11.36;29.00;99816.84;6304518;22;20003;-90
2022/03/25 04:16:21;;;;;;;27.77;16.70;;;;;;;10.93;29.38;99760.13;6304814;22;20015;-90
2022/03/25 04:18:46;;;;;;;27.60;16.23;;;;;;;10.99;29.52;99771.81;6306125;22;20001;-89
2022/03/25 04:21:12;;;;;;;27.38;17.45;;;;;;;9.79;29.58;99593.59;6306110;22;19999;-90
2022/03/25 04:23:38;;;;;;;29.38;17.73;;;;;;;11.20;29.51;99818.78;6304408;22;19999;-90
2022/03/25 04:26:03;;;;;;;27.02;18.27;;;;;;;11.12;29.83;99823.09;6304140;22;20043;-90
2022/03/25 04:28:29;;;;;;;29.42;16.45;;;;;;;10.97;29.37;99834.59;6305786;22;20001;-90
2022/03/25 04:30:54;;;;;;;26.98;15.88;;;;;;;10.37;30.00;99735.66;6305965;22;19995;-90
2022/03/25 04:33:20;;;;;;;29.08;17.50;;;;;;;10.63;29.92;99801.41;6304262;22;19995;-90
2022/03/25 04:35:45;;;;;;;24.13;15.48;;;;;;;9.90;30.17;99682.06;6304353;22;20003;-91
2022/03/25 04:38:11;;;;;;;22.00;15.73;;;;;;;10.73;29.97;99824.97;6304310;22;20436;-90
2022/03/25 04:40:37;;;;;;;22.05;15.52;;;;;;;10.14;30.55;99780.41;6304262;22;20427;-90
2022/03/25 04:43:03;;;;;;;26.45;15.68;;;;;;;10.67;30.39;99878.47;6304038;22;19995;-90
2022/03/25 04:45:29;;;;;;;27.50;16.45;;;;;;;10.23;30.53;99825.28;6304320;22;19991;-90
2022/03/25 04:47:55;;;;;;;25.98;16.95;;;;;;;10.35;31.05;99848.50;6305791;22;20002;-90
2022/03/25 04:50:21;;;;;;;26.55;16.60;;;;;;;10.00;30.68;99801.38;6305895;22;19995;-90
2022/03/25 04:52:47;;;;;;;24.60;15.25;;;;;;;9.75;31.06;99761.06;6304245;22;20033;-91
2022/03/25 04:55:13;;;;;;;26.80;16.02;;;;;;;9.86;31.20;99809.00;6304262;22;19999;-90
2022/03/25 04:57:39;;;;;;;22.15;16.95;;;;;;;10.13;31.11;99863.19;6306265;22;20024;-90
2022/03/25 05:00:06;;;;;;;31.50;21.23;;;;;;;9.64;31.27;99785.91;6304409;22;20026;-90
2022/03/25 05:02:32;;;;;;;29.30;18.17;;;;;;;8.97;31.17;99711.47;6330748;22;20015;-90
2022/03/25 05:04:58;;;;;;;33.05;22.33;;;;;;;9.78;31.62;99845.91;6337748;22;20002;-91
2022/03/25 05:07:23;;;;;;;39.22;26.92;;;;;;;9.95;31.75;99849.38;6337577;22;20026;-91
2022/03/25 05:09:49;;;;;;;37.88;24.02;;;;;;;10.14;31.45;99872.75;6309284;22;19999;-91
2022/03/25 05:12:15;;;;;;;36.95;24.10;;;;;;;10.27;31.57;99908.38;6336680;22;19995;-90
2022/03/25 05:14:41;;;;;;;37.85;27.17;;;;;;;9.94;31.78;99858.28;6309082;22;20067;-90
2022/03/25 05:17:07;;;;;;;45.90;27.45;;;;;;;10.29;31.38;99895.84;6336773;22;19994;-91
2022/03/25 05:19:33;;;;;;;42.70;27.58;;;;;;;10.31;31.31;99897.34;6309243;22;20009;-91
2022/03/25 05:21:59;;;;;;;42.28;27.08;;;;;;;9.47;31.15;99764.00;6308853;22;19998;-91
2022/03/25 05:24:25;;;;;;;44.00;30.55;;;;;;;10.32;31.57;99892.88;6336807;22;20463;-91
2022/03/25 05:26:51;;;;;;;42.25;28.52;;;;;;;10.22;31.72;99877.22;6309137;22;20022;-91
2022/03/25 05:29:16;;;;;;;32.28;23.10;;;;;;;9.51;31.69;99752.16;6309133;22;20002;-90
2022/03/25 05:31:42;;;;;;;37.05;22.60;;;;;;;8.47;31.99;99591.31;6336536;22;19999;-90
2022/03/25 05:34:08;;;;;;;27.30;18.50;;;;;;;10.03;31.51;99844.09;6336507;22;20003;-91
2022/03/25 05:36:34;;;;;;;24.33;17.33;;;;;;;10.26;31.96;99870.63;6309095;22;20341;-90
2022/03/25 05:39:00;;;;;;;28.02;19.70;;;;;;;10.48;31.47;99898.16;6309380;22;20329;-91
2022/03/25 05:41:27;;;;;;;32.05;22.45;;;;;;;10.53;31.81;99895.84;6308789;22;20048;-90
2022/03/25 05:43:53;;;;;;;38.85;26.83;;;;;;;10.28;31.97;99866.00;6337149;22;19987;-91
2022/03/25 05:46:18;;;;;;;38.60;25.55;;;;;;;10.57;31.55;99894.50;6308966;22;20056;-90
2022/03/25 05:48:44;;;;;;;37.90;26.77;;;;;;;10.59;31.85;99897.78;6308933;22;19994;-90
2022/03/25 05:51:10;;;;;;;40.45;28.20;;;;;;;9.61;31.80;99728.25;6337035;22;20031;-91
2022/03/25 05:53:39;;;;;;;42.47;25.77;;;;;;;9.81;32.02;99765.66;6336705;22;20040;-90
2022/03/25 05:56:05;;;;;;;52.38;32.63;;;;;;;9.81;31.88;99773.56;6308868;22;20007;-90
2022/03/25 05:58:34;;;;;;;43.15;29.33;;;;;;;10.14;32.22;99829.72;6309186;22;20006;-90
2022/03/25 06:01:01;;;;;;;41.70;29.35;;;;;;;9.86;31.89;99777.34;6308904;22;20022;-91
2022/03/25 06:03:27;;;;;;;49.58;29.83;;;;;;;10.60;31.62;99867.75;6308866;22;19999;-90
2022/03/25 06:05:52;;;;;;;53.47;32.85;;;;;;;10.91;31.76;99886.28;6337943;22;19991;-90
2022/03/25 06:08:18;;;;;;;44.22;33.30;;;;;;;10.39;31.49;99801.47;6338424;22;20026;-90
2022/03/25 06:10:44;;;;;;;50.17;33.75;;;;;;;10.39;31.79;99783.81;6339100;22;20043;-90
2022/03/25 06:13:09;;;;;;;53.45;33.75;;;;;;;10.72;31.47;99815.38;6338763;22;19995;-89
2022/03/25 06:15:35;;;;;;;51.40;33.63;;;;;;;10.70;31.35;99794.44;6311263;22;20077;-90
2022/03/25 06:18:00;;;;;;;44.42;32.03;;;;;;;10.57;31.05;99757.22;6310897;22;20010;-90
2022/03/25 06:20:27;;;;;;;48.92;29.77;;;;;;;11.04;31.25;99851.38;6310895;22;20348;-90
2022/03/25 06:22:53;;;;;;;46.42;27.75;;;;;;;11.64;30.49;99919.44;6310996;22;20126;-90
2022/03/25 06:25:20;;;;;;;29.15;21.08;;;;;;;11.02;30.26;99803.19;6338628;22;20026;-90
2022/03/25 06:27:51;;;;;;;29.33;19.17;;;;;;;11.82;29.78;99911.25;6338069;22;20481;-90
2022/03/25 06:30:18;;;;;;;30.20;19.03;;;;;;;11.90;30.20;99909.41;6338314;22;20052;-90
2022/03/25 06:32:43;;;;;;;25.80;16.00;;;;;;;11.92;28.99;99888.88;6310602;22;20022;-90
2022/03/25 06:35:09;;;;;;;24.33;15.98;;;;;;;11.31;28.97;99784.84;6310455;22;20029;-90
2022/03/25 06:37:35;;;;;;;31.38;18.20;;;;;;;11.90;29.01;99903.28;6310728;22;20072;-90
2022/03/25 06:40:01;;;;;;;26.48;15.95;;;;;;;11.91;28.89;99873.19;6310488;22;20353;-90
2022/03/25 06:42:26;;;;;;;20.23;14.32;;;;;;;12.30;28.36;99912.69;6338051;22;19999;-89
2022/03/25 06:44:52;;;;;;;24.42;12.60;;;;;;;11.92;28.05;99843.91;6310494;22;20013;-89
2022/03/25 06:47:17;;;;;;;21.67;13.63;;;;;;;12.09;27.81;99865.75;6310637;22;20057;-89
2022/03/25 06:49:43;;;;;;;23.30;13.48;;;;;;;12.13;28.09;99864.38;6338253;22;19995;-89
2022/03/25 06:52:09;;;;;;;21.27;13.80;;;;;;;11.80;28.08;99788.91;6337890;22;19999;-90
2022/03/25 06:54:35;;;;;;;20.65;13.40;;;;;;;11.71;27.91;99761.69;6337927;22;19999;-89
2022/03/25 06:57:01;;;;;;;20.27;13.98;;;;;;;12.29;27.70;99850.97;6310390;22;20002;-89
2022/03/25 06:59:27;;;;;;;20.02;12.48;;;;;;;12.39;27.72;99856.81;6337865;22;20036;-89
2022/03/25 07:01:53;;;;;;;21.33;14.13;;;;;;;12.82;28.16;99898.59;6337815;22;20015;-89
2022/03/25 07:04:18;;;;;;;20.38;12.43;;;;;;;12.52;27.41;99828.88;6337844;22;19995;-89
2022/03/25 07:06:48;;;;;;;19.60;15.45;;;;;;;13.14;27.95;99903.47;6337675;22;20014;-89
2022/03/25 07:09:14;;;;;;;18.92;11.38;;;;;;;12.90;27.19;99874.63;6337536;22;20444;-89
2022/03/25 07:11:40;;;;;;;19.63;12.48;;;;;;;12.54;27.02;99801.19;6337655;22;20069;-89
2022/03/25 07:14:06;;;;;;;19.27;12.90;;;;;;;12.99;27.03;99876.19;6337858;22;20428;-89
2022/03/25 07:16:31;;;;;;;15.65;11.52;;;;;;;13.10;26.62;99888.97;6337665;22;19994;-89
2022/03/25 07:18:59;;;;;;;14.90;11.07;;;;;;;12.47;26.65;99762.41;6310358;22;20002;-89
2022/03/25 07:21:25;;;;;;;15.57;10.65;;;;;;;13.42;26.43;99902.84;6337841;22;20120;-89
2022/03/25 07:23:50;;;;;;;16.88;12.05;;;;;;;12.89;26.67;99810.22;6338082;22;19999;-89
2022/03/25 07:26:17;;;;;;;17.05;11.30;;;;;;;12.73;26.29;99795.34;6338011;22;20035;-89
2022/03/25 07:28:43;;;;;;;18.35;11.52;;;;;;;12.93;26.35;99808.84;6310950;22;20542;-89
2022/03/25 07:31:08;;;;;;;19.58;13.90;;;;;;;13.31;26.61;99857.22;6338000;22;20026;-90
2022/03/25 07:33:34;;;;;;;19.80;12.65;;;;;;;13.36;25.93;99876.03;6310333;22;19999;-88
2022/03/25 07:36:00;;;;;;;17.77;11.25;;;;;;;13.50;25.91;99878.84;6310161;22;20007;-86
2022/03/25 07:38:27;;;;;;;16.30;10.90;;;;;;;13.45;25.42;99865.31;6337699;22;20006;-87
2022/03/25 07:40:53;;;;;;;15.68;10.85;;;;;;;13.59;25.92;99859.97;6309476;22;19999;-89
2022/03/25 07:43:19;;;;;;;16.90;10.68;;;;;;;13.03;25.39;99769.59;6310181;22;20034;-87
2022/03/25 07:45:45;;;;;;;14.82;10.73;;;;;;;13.46;24.96;99838.63;6337965;22;19990;-88
2022/03/25 07:48:11;;;;;;;24.42;14.50;;;;;;;13.28;25.97;99857.59;6338005;22;20489;-88
2022/03/25 07:50:36;;;;;;;21.35;13.52;;;;;;;13.19;26.07;99792.41;6337644;22;20181;-88
2022/03/25 07:53:02;;;;;;;17.95;11.85;;;;;;;13.50;24.93;99829.25;6309795;22;20030;-88
2022/03/25 07:55:27;;;;;;;20.27;11.43;;;;;;;12.96;24.91;99768.72;6337076;22;19998;-88
2022/03/25 07:57:53;;;;;;;14.40;11.32;;;;;;;13.02;24.68;99767.13;6309921;22;20343;-87
2022/03/25 08:00:19;;;;;;;14.98;10.35;;;;;;;13.61;24.75;99875.69;6309751;22;20001;-87
2022/03/25 08:02:47;;;;;;;17.42;11.40;;;;;;;13.80;24.51;99890.97;6309516;22;20089;-88
2022/03/25 08:05:14;;;;;;;17.65;11.60;;;;;;;13.49;24.44;99832.94;6309653;22;20077;-88
2022/03/25 08:07:52;;;;;;;15.43;11.68;;;;;;;13.84;24.79;99872.84;6309381;22;20409;-88
2022/03/25 08:10:29;;;;;;;14.10;10.85;;;;;;;13.26;24.67;99765.97;6309136;22;20002;-87
2022/03/25 08:12:56;;;;;;;19.30;12.35;;;;;;;13.31;25.13;99755.63;6337134;22;20353;-88
2022/03/25 08:15:23;;;;;;;17.00;11.88;;;;;;;14.20;24.91;99899.31;6309438;22;20010;-87
2022/03/25 08:17:52;;;;;;;16.85;11.75;;;;;;;13.43;24.80;99763.91;6337047;22;20428;-87
2022/03/25 08:20:29;;;;;;;17.45;11.43;;;;;;;14.37;24.82;99884.72;6337008;22;20001;-87
2022/03/25 08:22:58;;;;;;;18.98;14.65;;;;;;;14.48;24.76;99880.72;6309351;22;20060;-87
2022/03/25 08:28:11;;;;;;;18.00;12.18;;;;;;;14.60;24.64;99881.81;6335386;22;20534;-86
2022/03/25 08:30:37;;;;;;;21.52;15.13;;;;;;;14.58;24.75;99866.06;6306750;22;20002;-87
2022/03/25 08:33:04;;;;;;;17.80;11.63;;;;;;;14.50;24.18;99829.03;6306955;22;19999;-87
2022/03/25 08:35:30;;;;;;;14.18;11.65;;;;;;;14.96;24.13;99878.97;6334706;22;20432;-86
2022/03/25 08:37:56;;;;;;;14.27;12.13;;;;;;;15.07;24.51;99875.75;6335928;22;20329;-87
2022/03/25 08:40:23;;;;;;;14.35;11.65;;;;;;;14.81;24.38;99814.47;6306949;22;19999;-89
2022/03/25 08:42:49;;;;;;;15.60;12.02;;;;;;;14.66;24.19;99771.25;6308291;22;19999;-88
2022/03/25 08:45:15;;;;;;;15.05;10.85;;;;;;;14.66;23.86;99756.13;6307823;22;20005;-86
2022/03/25 08:47:41;;;;;;;16.02;10.80;;;;;;;14.86;23.58;99778.31;6306986;22;20059;-89
2022/03/25 08:50:09;;;;;;;18.30;13.85;;;;;;;14.95;23.65;99773.63;6308533;22;19995;-87
2022/03/25 08:52:36;;;;;;;26.17;16.90;;;;;;;15.26;23.30;99802.34;6307549;22;20018;-87
2022/03/25 08:55:02;;;;;;;20.15;13.32;;;;;;;14.98;23.23;99743.16;6308845;22;20434;-86
2022/03/25 08:57:27;;;;;;;18.65;12.48;;;;;;;15.43;23.09;99792.94;6308415;22;20009;-85
2022/03/25 08:59:52;;;;;;;20.33;14.10;;;;;;;14.77;23.06;99637.78;6308172;22;19999;-85
2022/03/25 09:02:18;;;;;;;17.95;13.63;;;;;;;15.93;23.19;99817.38;6308204;22;20368;-86
2022/03/25 09:04:46;;;;;;;21.83;12.35;;;;;;;16.15;22.85;99834.78;6335424;22;20333;-86
2022/03/25 09:07:12;;;;;;;18.77;12.80;;;;;;;16.13;22.75;99794.19;6336161;22;20428;-87
2022/03/25 09:09:38;;;;;;;17.70;12.88;;;;;;;16.58;22.65;99836.97;6308252;22;20090;-85
2022/03/25 09:12:04;;;;;;;15.05;12.52;;;;;;;16.32;22.50;99768.53;6335053;22;20026;-85
2022/03/25 09:14:29;;;;;;;15.73;12.60;;;;;;;16.41;22.15;99769.97;6335303;22;20424;-86
2022/03/25 09:16:55;;;;;;;19.25;13.52;;;;;;;16.68;22.15;99789.38;6335501;22;20005;-85
2022/03/25 09:19:20;;;;;;;19.40;13.00;;;;;;;16.59;21.81;99747.16;6336059;22;20070;-85
2022/03/25 09:21:45;;;;;;;19.60;13.35;;;;;;;17.11;21.89;99816.28;6335501;22;20021;-86
2022/03/25 09:24:11;;;;;;;20.67;13.15;;;;;;;16.78;21.63;99747.06;6308362;22;19991;-85
2022/03/25 09:26:37;;;;;;;18.70;12.43;;;;;;;17.21;21.63;99801.66;6308175;22;20396;-85
2022/03/25 09:29:02;;;;;;;17.80;12.65;;;;;;;16.70;21.58;99670.00;6334858;22;20322;-84
2022/03/25 09:31:27;;;;;;;18.70;13.93;;;;;;;17.53;21.42;99781.09;6335908;22;20432;-86
2022/03/25 09:35:08;;;;;;;19.48;12.05;;;;;;;17.45;21.42;99744.81;6307514;22;20007;-87
2022/03/25 09:36:38;;;;;;;16.00;12.60;;;;;;;17.93;21.01;99792.31;6336107;22;20006;-87
2022/03/25 09:39:04;;;;;;;16.42;11.70;;;;;;;17.95;21.18;99782.22;6307651;22;20432;-87
2022/03/25 09:41:31;;;;;;;22.55;14.57;;;;;;;17.68;20.91;99731.72;6340148;22;20602;-88
2022/03/25 09:43:56;;;;;;;19.35;13.02;;;;;;;18.10;20.81;99775.50;6312276;22;20082;-88
2022/03/25 09:46:22;;;;;;;19.00;13.10;;;;;;;18.20;20.68;99776.84;6312471;22;20031;-87
2022/03/25 09:48:47;;;;;;;20.65;14.38;;;;;;;18.70;20.56;99820.34;6338763;22;19994;-88
2022/03/25 09:51:13;;;;;;;17.05;11.63;;;;;;;18.15;20.45;99721.38;6311388;22;20026;-88
2022/03/25 09:53:40;;;;;;;15.30;12.57;;;;;;;18.66;20.29;99761.13;6337893;22;20014;-88
2022/03/25 09:56:06;;;;;;;19.20;12.63;;;;;;;18.78;19.98;99742.47;6311659;22;19999;-88
2022/03/25 09:58:32;;;;;;;18.33;12.27;;;;;;;18.83;20.04;99720.38;6311885;22;20074;-86
2022/03/25 10:00:59;;;;;;;18.17;12.23;;;;;;;19.61;19.66;99811.31;6312540;22;20042;-87
2022/03/25 10:03:31;;;;;;;19.00;13.63;;;;;;;19.21;19.57;99723.53;6339996;22;20083;-88
2022/03/25 10:05:59;;;;;;;21.20;16.23;;;;;;;19.49;19.55;99747.00;6340440;22;19990;-87
2022/03/25 10:08:31;;;;;;;19.48;17.38;;;;;;;20.06;19.72;99800.88;6312721;22;19999;-89
2022/03/25 10:11:23;;;;;;;16.80;13.77;;;;;;;20.20;18.76;99788.06;6339979;22;19999;-88
2022/03/25 10:14:15;;;;;;;16.10;12.70;;;;;;;20.17;19.07;99761.72;6312438;22;20401;-87
2022/03/25 10:16:49;;;;;;;;;;;;;;;20.46;19.56;99779.53;6340540;22;20397;-88
2022/03/25 10:19:19;;;;;;;15.82;11.75;;;;;;;19.89;19.08;99665.94;6312688;22;19902;-89
2022/03/25 10:21:58;;;;;;;18.33;12.52;;;;;;;20.87;18.75;99773.16;6311064;22;20002;-90
2022/03/25 10:24:52;;;;;;;15.25;12.50;;;;;;;20.89;18.19;99749.56;6329526;22;19994;-88
2022/03/25 10:27:23;;;;;;;16.77;11.52;;;;;;;21.04;18.78;99777.75;6316602;22;20006;-88
2022/03/25 10:29:54;;;;;;;15.90;11.57;;;;;;;20.93;18.82;99729.25;6339605;22;20436;-89
2022/03/25 10:32:24;;;;;;;18.27;11.50;;;;;;;21.37;18.54;99764.41;6313631;22;20432;-89
2022/03/25 10:35:08;;;;;;;17.02;12.40;;;;;;;21.32;18.52;99733.94;6312020;22;19999;-89
2022/03/25 10:37:35;;;;;;;14.05;11.45;;;;;;;21.34;18.53;99742.59;6311961;22;20006;-89
2022/03/25 10:40:04;;;;;;;16.98;12.95;;;;;;;21.43;18.28;99750.00;6339374;22;19990;-89
2022/03/25 10:42:30;;;;;;;15.10;11.23;;;;;;;21.03;18.02;99685.66;6311250;22;20002;-89
2022/03/25 10:44:55;;;;;;;13.10;11.77;;;;;;;20.38;18.02;99518.94;6339447;22;20058;-89
2022/03/25 10:47:24;;;;;;;18.33;13.70;;;;;;;21.95;18.13;99744.34;6312296;22;19995;-89
2022/03/25 10:49:50;;;;;;;13.18;11.77;;;;;;;21.79;18.04;99715.63;6339833;22;20363;-87
2022/03/25 10:52:25;;;;;;;15.20;11.57;;;;;;;22.16;17.49;99740.09;6310890;22;20333;-90
2022/03/25 10:55:11;;;;;;;19.58;13.30;;;;;;;21.88;17.63;99709.59;6339802;22;20009;-88
2022/03/25 10:57:58;;;;;;;14.25;11.40;;;;;;;21.64;17.24;99665.16;6313543;22;20090;-87
2022/03/25 11:00:24;;;;;;;14.45;11.68;;;;;;;21.91;17.69;99661.75;6338839;22;19999;-87
2022/03/25 11:02:51;;;;;;;14.50;12.10;;;;;;;22.09;17.43;99669.56;6365170;22;20488;-87
2022/03/25 11:05:17;;;;;;;15.30;11.13;;;;;;;22.13;17.32;99678.75;6334729;22;20344;-89
2022/03/25 11:07:46;;;;;;;14.57;11.57;;;;;;;22.53;17.28;99694.56;6286706;22;20013;-86
2022/03/25 11:10:13;;;;;;;15.50;11.45;;;;;;;22.35;17.04;99654.56;6337061;22;20428;-86
2022/03/25 11:12:46;;;;;;;16.42;12.40;;;;;;;22.88;16.88;99722.97;6335683;22;19994;-83
2022/03/25 11:15:18;;;;;;;14.45;11.63;;;;;;;22.76;17.10;99672.75;6308606;22;20013;-84
2022/03/25 11:17:44;;;;;;;16.80;11.30;;;;;;;23.02;16.64;99725.00;6308901;22;20005;-84
2022/03/25 11:20:12;;;;;;;17.02;10.63;;;;;;;22.63;16.72;99643.56;6309378;22;19998;-86
2022/03/25 11:22:42;;;;;;;14.40;10.63;;;;;;;23.15;16.54;99710.31;6308645;22;20002;-85